Weather at Ferlach-Glainach Airfield

Public forecast

Using degrees Celsius for public forecast. Weather courtesy of forecast.io.

Closest aviation weather report (METAR) to Ferlach-Glainach Airfield

Closest report is Klagenfurt Airport, 6.6 nm (12.2 km) N.

2024/05/21 14:20 (retrieved 25 minutes ago)

LOWK 211420Z AUTO 26003KT 240V300 9999 FEW005 BKN024 17/14 Q1005 TEMPO 2500 +SHRA BKN012

Closest aviation forecast (TAF) to Ferlach-Glainach Airfield

Closest forecast is Klagenfurt Airport, 6.6 nm (12.2 km) N.

2024/05/21 12:21 (retrieved 2 hours ago)

TAF LOWK 211115Z 2112/2212 VRB04KT 9999 FEW012 BKN020 TX19/2211Z TN13/2203Z TEMPO 2112/2116 11015G25KT 2000 +TSRA BKN008 FEW020CB TEMPO 2116/2206 SHRA BKN014 FEW020CB PROB40 TEMPO 2200/2204 4000 TSRA BKN012 FEW020CB TEMPO 2209/2212 SHRA